Time;durP1;ratioP1;P1;durP2;ratioP2;P2;SDS_P1;SDS_P2;PMS_P1;PMS_P2;Temp;Humidity;BMP_temperature;BMP_pressure;BME280_temperature;BME280_humidity;BME280_pressure;Samples;Min_cycle;Max_cycle;Signal;HPM_P1;HPM_P2
2022/08/17 00:01:27;;;;;;;4.77;4.10;;;23.30;57.30;;;;;;7373211;19;21096;-46
2022/08/17 00:03:57;;;;;;;5.50;4.20;;;23.30;57.80;;;;;;7376267;19;20392;-46
2022/08/17 00:06:30;;;;;;;4.10;3.80;;;23.20;57.90;;;;;;7381652;19;20906;-46
2022/08/17 00:09:01;;;;;;;4.30;3.90;;;23.20;57.90;;;;;;7377973;19;20380;-46
2022/08/17 00:11:38;;;;;;;6.00;4.33;;;23.30;57.80;;;;;;7374936;19;20715;-46
2022/08/17 00:14:10;;;;;;;6.00;4.60;;;23.20;57.60;;;;;;7378523;19;20442;-46
2022/08/17 00:16:43;;;;;;;5.63;5.13;;;23.20;58.00;;;;;;7378180;19;20619;-46
2022/08/17 00:19:14;;;;;;;5.57;4.67;;;23.20;58.00;;;;;;7375092;19;21285;-47
2022/08/17 00:21:46;;;;;;;4.73;4.30;;;23.20;58.10;;;;;;7382245;19;20387;-46
2022/08/17 00:24:16;;;;;;;4.80;4.07;;;23.10;58.20;;;;;;7376116;19;20793;-46
2022/08/17 00:26:48;;;;;;;4.80;4.30;;;23.00;58.40;;;;;;7376868;19;20944;-46
2022/08/17 00:29:18;;;;;;;4.60;4.20;;;22.80;58.50;;;;;;7373193;19;20789;-47
2022/08/17 00:31:47;;;;;;;4.80;4.40;;;22.70;58.80;;;;;;7373880;19;20372;-46
2022/08/17 00:34:17;;;;;;;5.17;4.67;;;22.70;58.80;;;;;;7375717;19;20375;-47
2022/08/17 00:36:47;;;;;;;6.00;4.70;;;22.80;59.00;;;;;;7364679;19;20408;-46
2022/08/17 00:39:19;;;;;;;4.80;4.30;;;22.80;58.70;;;;;;7348769;19;20376;-46
2022/08/17 00:41:51;;;;;;;4.37;3.97;;;22.70;59.00;;;;;;7373453;19;20742;-46
2022/08/17 00:44:21;;;;;;;8.43;4.60;;;22.80;59.20;;;;;;7377305;19;20450;-46
2022/08/17 00:46:50;;;;;;;5.03;4.43;;;22.80;59.00;;;;;;7376864;19;20388;-47
2022/08/17 00:49:22;;;;;;;6.17;5.03;;;22.90;58.70;;;;;;7386461;19;20391;-47
2022/08/17 00:51:54;;;;;;;4.43;4.03;;;22.90;58.60;;;;;;7382410;19;20388;-46
2022/08/17 00:54:28;;;;;;;4.57;4.10;;;22.80;58.90;;;;;;7380094;19;20451;-47
2022/08/17 00:57:03;;;;;;;7.23;4.60;;;22.80;59.10;;;;;;7380697;19;20365;-46
2022/08/17 00:59:39;;;;;;;6.23;4.40;;;22.70;59.30;;;;;;7379745;19;20784;-46
2022/08/17 01:02:12;;;;;;;4.80;4.30;;;22.70;59.30;;;;;;7380874;19;20376;-48
2022/08/17 01:04:41;;;;;;;5.03;4.40;;;22.60;59.70;;;;;;7380498;19;20412;-46
2022/08/17 01:07:11;;;;;;;4.67;4.37;;;22.50;60.10;;;;;;7382201;19;20383;-46
2022/08/17 01:09:42;;;;;;;5.23;4.73;;;22.50;60.50;;;;;;7381942;19;20483;-45
2022/08/17 01:12:15;;;;;;;5.10;4.00;;;22.40;60.60;;;;;;7385014;19;20406;-45
2022/08/17 01:14:44;;;;;;;4.70;4.30;;;22.40;60.70;;;;;;7383674;19;21751;-45
2022/08/17 01:17:16;;;;;;;5.67;4.93;;;22.50;60.80;;;;;;7372841;19;20460;-45
2022/08/17 01:19:46;;;;;;;4.80;4.40;;;22.40;61.30;;;;;;7378730;19;20726;-45
2022/08/17 01:22:28;;;;;;;4.90;4.50;;;22.30;61.60;;;;;;7379413;19;20376;-45
2022/08/17 01:25:01;;;;;;;5.57;4.37;;;22.10;62.60;;;;;;7373017;19;20380;-45
2022/08/17 01:27:32;;;;;;;4.63;3.93;;;22.00;63.30;;;;;;7378447;19;20364;-45
2022/08/17 01:30:06;;;;;;;5.77;4.40;;;22.20;62.50;;;;;;7383216;19;20479;-45
2022/08/17 01:32:36;;;;;;;5.50;4.50;;;22.30;62.00;;;;;;7359932;19;20384;-46
2022/08/17 01:35:07;;;;;;;5.53;5.03;;;22.30;62.00;;;;;;7357819;19;20387;-45
2022/08/17 01:37:42;;;;;;;4.87;4.20;;;22.40;61.90;;;;;;7375452;19;20725;-45
2022/08/17 01:40:19;;;;;;;5.97;5.37;;;22.30;62.40;;;;;;7380946;19;20394;-45
2022/08/17 01:42:55;;;;;;;5.90;5.30;;;22.20;62.40;;;;;;7377630;19;21044;-45
2022/08/17 01:45:29;;;;;;;5.43;4.93;;;22.10;63.10;;;;;;7379540;19;20459;-45
2022/08/17 01:47:59;;;;;;;5.60;5.10;;;22.00;63.60;;;;;;7375731;19;20372;-45
2022/08/17 01:50:34;;;;;;;6.63;4.90;;;21.90;63.90;;;;;;7380446;19;20391;-45
2022/08/17 01:53:10;;;;;;;4.77;4.37;;;22.10;63.60;;;;;;7375865;19;20376;-46
2022/08/17 01:55:44;;;;;;;5.10;4.70;;;22.00;63.60;;;;;;7378813;19;20808;-45
2022/08/17 01:58:14;;;;;;;6.07;5.20;;;22.00;64.10;;;;;;7378884;19;20930;-45
2022/08/17 02:00:45;;;;;;;5.47;4.97;;;21.90;64.20;;;;;;7379331;19;20432;-45
2022/08/17 02:03:16;;;;;;;6.40;4.80;;;21.90;63.90;;;;;;7381541;19;20933;-45
2022/08/17 02:05:47;;;;;;;5.60;4.80;;;21.90;63.70;;;;;;7372325;19;20546;-45
2022/08/17 02:08:21;;;;;;;5.30;4.83;;;22.00;63.90;;;;;;7380981;19;20719;-46
2022/08/17 02:10:53;;;;;;;5.03;4.53;;;22.00;63.90;;;;;;7380790;19;20368;-46
2022/08/17 02:13:23;;;;;;;4.90;4.50;;;21.80;64.20;;;;;;7377628;19;20826;-46
2022/08/17 02:15:52;;;;;;;4.80;4.40;;;21.80;64.70;;;;;;7381211;19;20383;-46
2022/08/17 02:18:22;;;;;;;5.37;4.30;;;21.80;64.70;;;;;;7375355;19;20778;-46
2022/08/17 02:20:51;;;;;;;7.97;5.00;;;21.70;64.70;;;;;;7372741;19;20395;-46
2022/08/17 02:23:26;;;;;;;5.40;4.90;;;21.50;65.20;;;;;;7375672;19;20376;-46
2022/08/17 02:25:57;;;;;;;4.97;4.53;;;21.50;65.70;;;;;;7376354;19;20398;-47
2022/08/17 02:28:27;;;;;;;5.97;5.30;;;21.60;65.20;;;;;;7373432;19;20391;-46
2022/08/17 02:30:57;;;;;;;6.43;4.57;;;21.60;64.60;;;;;;7369700;19;20376;-47
2022/08/17 02:33:27;;;;;;;4.83;4.43;;;21.70;64.90;;;;;;7351665;19;20392;-47
2022/08/17 02:35:56;;;;;;;7.23;4.77;;;21.70;65.40;;;;;;7360114;19;20385;-46
2022/08/17 02:38:30;;;;;;;5.50;4.40;;;21.70;64.70;;;;;;7372409;19;20384;-47
2022/08/17 02:41:00;;;;;;;4.67;4.03;;;21.80;64.50;;;;;;7377400;19;20400;-46
2022/08/17 02:43:30;;;;;;;5.00;4.53;;;21.70;65.40;;;;;;7381612;19;20421;-45
2022/08/17 02:46:00;;;;;;;5.07;4.40;;;21.70;65.00;;;;;;7377289;19;20380;-46
2022/08/17 02:48:29;;;;;;;4.17;3.87;;;21.80;65.20;;;;;;7379775;19;20439;-45
2022/08/17 02:50:59;;;;;;;4.97;4.43;;;21.90;64.60;;;;;;7369356;19;21209;-45
2022/08/17 02:53:31;;;;;;;5.07;4.17;;;21.70;65.20;;;;;;7382195;19;20436;-46
2022/08/17 02:56:00;;;;;;;5.20;4.70;;;21.50;65.80;;;;;;7377845;19;20379;-45
2022/08/17 02:58:30;;;;;;;5.20;4.80;;;21.50;65.80;;;;;;7377861;19;20395;-46
2022/08/17 03:00:59;;;;;;;6.17;5.00;;;21.70;65.20;;;;;;7377029;19;20515;-50
2022/08/17 03:03:29;;;;;;;6.00;5.03;;;21.90;64.40;;;;;;7377446;19;20440;-46
2022/08/17 03:05:58;;;;;;;4.93;4.40;;;22.00;64.10;;;;;;7376126;19;21069;-45
2022/08/17 03:08:31;;;;;;;5.13;4.03;;;21.90;64.80;;;;;;7380960;19;20419;-45
2022/08/17 03:11:00;;;;;;;6.60;4.67;;;21.90;65.70;;;;;;7374626;19;20918;-45
2022/08/17 03:13:30;;;;;;;4.97;4.40;;;21.70;65.40;;;;;;7374045;19;20372;-46
2022/08/17 03:15:59;;;;;;;4.93;4.53;;;21.60;65.70;;;;;;7378085;19;20459;-46
2022/08/17 03:18:32;;;;;;;6.63;4.60;;;21.60;65.90;;;;;;7377010;19;20376;-45
2022/08/17 03:21:03;;;;;;;4.63;4.17;;;21.80;65.40;;;;;;7376758;19;20368;-45
2022/08/17 03:23:39;;;;;;;4.67;4.27;;;21.80;64.80;;;;;;7378097;19;20388;-45
2022/08/17 03:26:10;;;;;;;5.00;4.10;;;21.80;64.50;;;;;;7384697;19;20413;-46
2022/08/17 03:28:40;;;;;;;5.80;5.00;;;21.80;65.00;;;;;;7375424;19;20387;-45
2022/08/17 03:31:10;;;;;;;4.57;4.17;;;21.70;65.40;;;;;;7375240;19;20465;-46
2022/08/17 03:33:39;;;;;;;5.83;4.50;;;21.70;65.30;;;;;;7376463;19;20426;-46
2022/08/17 03:36:10;;;;;;;4.43;4.03;;;21.80;64.50;;;;;;7378167;19;20372;-46
2022/08/17 03:38:42;;;;;;;6.60;5.30;;;22.00;64.00;;;;;;7377503;19;20958;-45
2022/08/17 03:41:12;;;;;;;5.53;4.23;;;22.20;63.30;;;;;;7377100;19;20368;-45
2022/08/17 03:43:44;;;;;;;5.50;5.00;;;22.20;64.20;;;;;;7373322;19;20368;-46
2022/08/17 03:57:06;;;;;;;5.90;5.00;;;21.70;65.40;;;;;;7372028;19;20400;-45
2022/08/17 03:59:37;;;;;;;4.80;4.40;;;21.70;66.30;;;;;;7375516;19;20388;-45
2022/08/17 04:02:10;;;;;;;5.70;4.90;;;21.60;65.80;;;;;;7364963;19;20508;-46
2022/08/17 04:04:41;;;;;;;4.43;4.03;;;21.60;65.50;;;;;;7374640;19;20943;-46
2022/08/17 04:07:10;;;;;;;5.60;4.93;;;21.70;65.00;;;;;;7378400;19;20391;-45
2022/08/17 04:09:42;;;;;;;4.80;4.40;;;21.50;65.40;;;;;;7378666;19;20368;-46
2022/08/17 04:12:12;;;;;;;6.50;4.67;;;21.40;66.40;;;;;;7374396;19;20380;-47
2022/08/17 04:14:41;;;;;;;4.77;4.10;;;21.60;65.60;;;;;;7373373;19;20372;-46
2022/08/17 04:17:11;;;;;;;4.50;4.10;;;21.50;65.50;;;;;;7371791;19;20379;-47
2022/08/17 04:19:40;;;;;;;5.00;4.60;;;21.40;65.70;;;;;;7380398;19;20390;-46
2022/08/17 04:22:10;;;;;;;4.40;4.00;;;21.30;66.10;;;;;;7382098;19;20399;-47
2022/08/17 04:24:42;;;;;;;4.53;4.13;;;21.30;66.40;;;;;;7380814;19;20368;-46
2022/08/17 04:27:14;;;;;;;13.80;4.60;;;21.30;66.30;;;;;;7381206;19;20371;-46
2022/08/17 04:29:43;;;;;;;5.50;4.90;;;21.50;65.60;;;;;;7384071;19;20372;-46
2022/08/17 04:32:13;;;;;;;6.47;4.50;;;21.40;65.40;;;;;;7376111;19;20414;-46
2022/08/17 04:34:42;;;;;;;5.57;4.30;;;21.60;65.30;;;;;;7382072;19;20371;-46
2022/08/17 04:37:12;;;;;;;4.80;4.40;;;21.60;65.00;;;;;;7383842;19;20707;-46
2022/08/17 04:42:05;;;;;;;4.90;4.40;;;21.70;64.80;;;;;;7380644;19;20395;-47
2022/08/17 04:42:33;;;;;;;5.17;4.67;;;21.80;64.90;;;;;;7376629;19;20415;-46
2022/08/17 04:45:04;;;;;;;5.40;4.90;;;21.70;65.30;;;;;;7385526;19;20396;-46
2022/08/17 04:47:33;;;;;;;7.00;4.70;;;21.60;65.50;;;;;;7377483;19;20447;-46
2022/08/17 04:50:03;;;;;;;4.90;4.50;;;21.50;66.20;;;;;;7380541;19;20730;-47
2022/08/17 04:52:46;;;;;;;6.10;4.77;;;21.50;66.20;;;;;;7384463;19;21187;-46
2022/08/17 04:55:18;;;;;;;5.70;5.20;;;21.50;66.50;;;;;;7379563;19;20876;-46
2022/08/17 04:57:47;;;;;;;5.03;4.30;;;21.50;66.70;;;;;;7377520;19;20371;-46
2022/08/17 05:00:17;;;;;;;6.87;5.60;;;21.60;67.30;;;;;;7370487;19;20782;-46
2022/08/17 05:02:48;;;;;;;5.63;5.13;;;21.60;66.00;;;;;;7382562;19;20376;-46
2022/08/17 05:05:21;;;;;;;6.20;4.33;;;21.80;65.60;;;;;;7379784;19;20395;-47
2022/08/17 05:07:53;;;;;;;4.70;4.30;;;21.60;66.50;;;;;;7382754;19;20375;-46
2022/08/17 05:10:26;;;;;;;4.70;4.30;;;21.40;66.60;;;;;;7380143;19;20379;-46
2022/08/17 05:13:00;;;;;;;5.70;4.17;;;21.20;67.70;;;;;;7382055;19;20391;-46
2022/08/17 05:15:30;;;;;;;5.53;4.57;;;21.20;68.10;;;;;;7371081;19;20987;-46
2022/08/17 05:18:00;;;;;;;6.53;4.87;;;21.20;68.40;;;;;;7370402;19;20387;-46
2022/08/17 05:20:30;;;;;;;5.77;5.13;;;21.30;68.50;;;;;;7364239;19;20420;-46
2022/08/17 05:23:03;;;;;;;5.97;4.40;;;21.30;68.30;;;;;;7383056;19;21634;-46
2022/08/17 05:25:38;;;;;;;6.30;4.83;;;21.40;68.00;;;;;;7385957;19;20388;-46
2022/08/17 05:28:11;;;;;;;7.27;5.20;;;21.40;68.10;;;;;;7388154;19;20995;-46
2022/08/17 05:30:42;;;;;;;5.20;4.80;;;21.50;67.50;;;;;;7386514;19;20379;-47
2022/08/17 05:33:15;;;;;;;5.97;4.93;;;21.70;66.80;;;;;;7386847;19;20388;-46
2022/08/17 05:35:48;;;;;;;5.20;4.80;;;22.00;65.80;;;;;;7382880;19;20703;-47
2022/08/17 05:38:19;;;;;;;5.57;5.00;;;22.10;64.80;;;;;;7385056;19;20965;-47
2022/08/17 05:40:51;;;;;;;6.63;5.20;;;22.30;64.30;;;;;;7386850;19;20399;-46
2022/08/17 05:43:23;;;;;;;7.23;5.10;;;22.50;64.10;;;;;;7387310;19;20384;-47
2022/08/17 05:46:01;;;;;;;8.57;6.30;;;22.50;64.20;;;;;;7380025;19;20380;-46
2022/08/17 05:48:39;;;;;;;7.70;5.87;;;22.50;63.90;;;;;;7382966;19;20379;-47
2022/08/17 05:51:42;;;;;;;7.37;6.60;;;22.60;64.10;;;;;;7388359;19;20953;-46
2022/08/17 05:54:28;;;;;;;7.57;6.07;;;22.70;63.60;;;;;;7380108;19;20945;-46
2022/08/17 05:57:21;;;;;;;6.83;6.13;;;22.80;63.10;;;;;;7377888;19;20401;-46
2022/08/17 06:00:05;;;;;;;7.70;6.03;;;22.90;62.70;;;;;;7381805;19;20443;-45
2022/08/17 06:02:54;;;;;;;5.47;4.97;;;23.00;62.40;;;;;;7379717;19;20384;-46
2022/08/17 06:05:41;;;;;;;6.80;5.97;;;23.10;61.20;;;;;;7373920;19;20388;-46
2022/08/17 06:08:19;;;;;;;6.73;6.00;;;23.20;61.00;;;;;;7380314;19;20380;-46
2022/08/17 06:10:59;;;;;;;6.17;5.60;;;23.20;60.90;;;;;;7383552;19;20499;-46
2022/08/17 06:13:48;;;;;;;5.43;4.93;;;23.40;61.40;;;;;;7385829;19;21001;-46
2022/08/17 06:16:20;;;;;;;8.53;5.50;;;23.50;60.60;;;;;;7381319;19;20380;-46
2022/08/17 06:19:01;;;;;;;6.43;5.00;;;23.60;60.10;;;;;;7386176;19;20387;-46
2022/08/17 06:21:35;;;;;;;6.37;5.50;;;23.80;60.00;;;;;;7379698;19;20394;-47
2022/08/17 06:24:17;;;;;;;7.03;6.33;;;23.80;60.20;;;;;;7381346;19;20379;-47
2022/08/17 06:26:47;;;;;;;8.83;5.80;;;24.00;60.00;;;;;;7387027;19;20481;-47
2022/08/17 06:29:34;;;;;;;7.20;6.50;;;24.10;59.90;;;;;;7386764;19;20380;-47
2022/08/17 06:32:04;;;;;;;5.63;4.90;;;24.30;59.10;;;;;;7385253;19;20769;-47
2022/08/17 06:34:36;;;;;;;6.90;5.80;;;24.40;59.10;;;;;;7382113;19;20906;-46
2022/08/17 06:37:15;;;;;;;6.03;5.37;;;24.40;58.50;;;;;;7380154;19;20392;-46
2022/08/17 06:39:55;;;;;;;5.63;5.13;;;24.50;58.50;;;;;;7383210;19;20407;-46
2022/08/17 06:42:39;;;;;;;6.20;5.70;;;24.60;58.30;;;;;;7383779;19;20368;-46
2022/08/17 06:45:15;;;;;;;7.83;7.03;;;24.70;58.10;;;;;;7382541;19;20368;-47
2022/08/17 06:47:50;;;;;;;11.63;6.73;;;25.00;57.50;;;;;;7383749;19;20368;-46
2022/08/17 06:50:33;;;;;;;8.27;6.30;;;25.20;57.10;;;;;;7384926;19;20368;-46
2022/08/17 06:53:12;;;;;;;8.70;6.90;;;25.50;56.90;;;;;;7378896;19;20806;-47
2022/08/17 06:55:48;;;;;;;9.00;6.17;;;25.80;56.30;;;;;;7380842;19;20388;-47
2022/08/17 06:58:23;;;;;;;9.97;7.10;;;26.00;56.10;;;;;;7378114;19;20384;-47
2022/08/17 07:00:59;;;;;;;12.30;6.80;;;26.20;55.50;;;;;;7376381;19;20507;-47
2022/08/17 07:03:37;;;;;;;11.40;7.23;;;26.20;55.20;;;;;;7381651;19;20423;-47
2022/08/17 07:06:12;;;;;;;8.33;6.70;;;26.30;55.20;;;;;;7374159;19;20372;-47
2022/08/17 07:08:52;;;;;;;12.23;6.90;;;26.30;55.30;;;;;;7374121;19;20383;-47
2022/08/17 07:11:28;;;;;;;7.93;7.20;;;26.50;54.70;;;;;;7378377;19;20387;-47
2022/08/17 07:14:07;;;;;;;8.47;6.60;;;26.80;54.10;;;;;;7374934;19;20355;-47
2022/08/17 07:16:45;;;;;;;6.90;6.20;;;27.00;53.70;;;;;;7370154;19;20372;-47
2022/08/17 07:19:18;;;;;;;5.53;4.57;;;26.90;53.40;;;;;;7378682;19;20778;-47
2022/08/17 07:21:54;;;;;;;6.50;5.80;;;26.90;53.40;;;;;;7371786;19;20380;-47
2022/08/17 07:24:46;;;;;;;5.97;5.30;;;27.00;52.90;;;;;;7367947;19;20909;-48
2022/08/17 07:27:20;;;;;;;6.73;5.40;;;27.10;52.20;;;;;;7372391;19;20913;-47
2022/08/17 07:29:55;;;;;;;5.50;5.10;;;27.30;51.60;;;;;;7379315;19;20411;-47
2022/08/17 07:32:31;;;;;;;6.53;5.80;;;27.40;50.70;;;;;;7375918;19;20444;-47
2022/08/17 07:35:14;;;;;;;5.00;4.60;;;27.50;49.90;;;;;;7377941;19;20375;-48
2022/08/17 07:37:53;;;;;;;4.77;4.33;;;27.50;50.40;;;;;;7381083;19;21144;-48
2022/08/17 07:40:33;;;;;;;5.30;4.80;;;27.70;50.00;;;;;;7376664;19;20368;-47
2022/08/17 07:43:21;;;;;;;5.37;4.87;;;28.00;49.50;;;;;;7383072;19;20372;-47
2022/08/17 07:48:48;;;;;;;7.33;5.17;;;28.40;48.20;;;;;;7381508;19;20376;-48
2022/08/17 07:51:23;;;;;;;5.93;5.17;;;28.50;47.60;;;;;;7383534;19;20750;-48
2022/08/17 07:53:54;;;;;;;5.97;5.00;;;28.60;47.50;;;;;;7381800;19;20441;-48
2022/08/17 07:56:42;;;;;;;7.00;5.30;;;28.80;47.50;;;;;;7387033;19;20372;-47
2022/08/17 07:59:18;;;;;;;6.17;5.23;;;28.80;47.00;;;;;;7387377;19;20949;-48
2022/08/17 08:02:01;;;;;;;6.23;5.27;;;28.70;47.40;;;;;;7387220;19;20424;-48
2022/08/17 08:04:36;;;;;;;5.97;4.70;;;28.70;47.40;;;;;;7391346;19;20738;-47
2022/08/17 08:07:09;;;;;;;7.00;5.30;;;28.70;47.20;;;;;;7392391;19;20383;-48
2022/08/17 08:09:42;;;;;;;7.50;5.60;;;28.70;47.30;;;;;;7388232;19;20383;-48
2022/08/17 08:12:34;;;;;;;6.27;5.67;;;28.60;47.20;;;;;;7392875;19;20395;-48
2022/08/17 08:15:16;;;;;;;7.43;5.60;;;28.60;47.30;;;;;;7390294;19;20371;-48
2022/08/17 08:17:52;;;;;;;5.90;5.30;;;28.70;47.30;;;;;;7388669;19;20380;-47
2022/08/17 08:20:35;;;;;;;7.47;5.60;;;28.60;47.20;;;;;;7387137;19;20384;-47
2022/08/17 08:23:14;;;;;;;5.90;5.17;;;28.40;47.60;;;;;;7387465;19;20432;-47
2022/08/17 08:25:50;;;;;;;5.80;5.10;;;28.40;48.00;;;;;;7390181;19;20372;-47
2022/08/17 08:28:34;;;;;;;8.57;5.93;;;28.50;47.70;;;;;;7385652;19;20398;-47
2022/08/17 08:31:09;;;;;;;5.90;5.30;;;28.40;47.90;;;;;;7387925;19;21331;-46
2022/08/17 08:33:50;;;;;;;5.80;5.40;;;28.30;47.90;;;;;;7388165;19;20391;-46
2022/08/17 08:36:41;;;;;;;6.77;6.07;;;28.10;48.00;;;;;;7386073;19;20906;-47
2022/08/17 08:39:17;;;;;;;6.93;5.87;;;28.00;48.40;;;;;;7389556;19;20412;-46
2022/08/17 08:41:57;;;;;;;8.20;5.40;;;27.70;48.80;;;;;;7384000;19;20384;-47
2022/08/17 08:44:38;;;;;;;8.50;5.27;;;27.70;49.00;;;;;;7389952;19;20410;-46
2022/08/17 08:47:18;;;;;;;12.37;6.20;;;27.70;48.90;;;;;;7386387;19;20395;-46
2022/08/17 08:50:13;;;;;;;11.00;5.77;;;27.60;49.00;;;;;;7386072;19;20908;-47
2022/08/17 08:53:04;;;;;;;5.63;5.07;;;27.60;49.10;;;;;;7389401;19;20633;-46
2022/08/17 08:55:46;;;;;;;6.30;5.60;;;27.50;49.50;;;;;;7386542;19;20993;-46
2022/08/17 08:58:19;;;;;;;6.30;5.70;;;27.50;49.80;;;;;;7389521;19;20379;-46
2022/08/17 09:00:55;;;;;;;8.17;5.43;;;27.50;50.10;;;;;;7388881;19;20473;-47
2022/08/17 09:03:48;;;;;;;5.83;5.33;;;27.40;50.10;;;;;;7389200;19;20376;-45
2022/08/17 09:06:41;;;;;;;6.53;5.97;;;27.40;50.00;;;;;;7390270;19;20923;-46
2022/08/17 09:09:25;;;;;;;8.40;5.70;;;27.40;50.50;;;;;;7388428;19;20373;-46
2022/08/17 09:12:03;;;;;;;5.83;5.33;;;27.30;50.70;;;;;;7389976;19;20942;-46
2022/08/17 09:14:39;;;;;;;7.90;6.57;;;27.30;50.90;;;;;;7389233;19;20388;-46
2022/08/17 09:17:14;;;;;;;9.73;5.60;;;27.30;52.10;;;;;;7382663;19;20627;-46
2022/08/17 09:19:49;;;;;;;7.03;6.43;;;27.20;51.40;;;;;;7387280;19;20371;-46
2022/08/17 09:22:31;;;;;;;5.70;5.10;;;27.20;51.30;;;;;;7386828;19;20404;-46
2022/08/17 09:25:09;;;;;;;9.13;6.23;;;27.20;52.00;;;;;;7390008;19;21084;-46
2022/08/17 09:27:53;;;;;;;6.37;5.77;;;27.30;53.40;;;;;;7389863;19;20404;-46
2022/08/17 09:30:24;;;;;;;9.10;6.40;;;27.20;55.90;;;;;;7381623;19;20384;-47
2022/08/17 09:32:57;;;;;;;7.10;6.20;;;27.00;55.60;;;;;;7386604;19;20422;-47
2022/08/17 09:35:33;;;;;;;7.23;6.53;;;26.80;56.10;;;;;;7382835;19;20368;-47
2022/08/17 09:38:10;;;;;;;7.60;6.83;;;26.80;57.50;;;;;;7387084;19;20379;-47
2022/08/17 09:40:51;;;;;;;7.20;6.07;;;26.70;61.30;;;;;;7386600;19;20383;-47
2022/08/17 09:43:29;;;;;;;7.43;6.83;;;26.60;64.60;;;;;;7385490;19;20384;-47
2022/08/17 09:46:03;;;;;;;8.83;6.63;;;26.50;66.10;;;;;;7384546;19;20384;-47
2022/08/17 09:48:40;;;;;;;7.70;6.77;;;26.40;68.70;;;;;;7386637;19;20465;-47
2022/08/17 09:51:20;;;;;;;9.43;6.40;;;26.40;70.20;;;;;;7388406;19;20388;-47
2022/08/17 09:53:50;;;;;;;8.70;7.80;;;26.20;70.40;;;;;;7386118;19;20914;-47
2022/08/17 09:56:40;;;;;;;7.63;6.80;;;25.70;73.40;;;;;;7385444;19;20373;-47
2022/08/17 09:59:35;;;;;;;9.70;8.13;;;25.30;75.60;;;;;;7386507;19;20918;-47
2022/08/17 10:02:27;;;;;;;13.97;8.10;;;25.30;74.60;;;;;;7383691;19;20436;-47
2022/08/17 10:05:03;;;;;;;14.00;7.53;;;25.40;74.90;;;;;;7384526;19;20392;-47
2022/08/17 10:07:38;;;;;;;9.53;6.80;;;25.50;75.10;;;;;;7385603;19;20752;-47
2022/08/17 10:10:14;;;;;;;10.33;7.30;;;25.90;74.10;;;;;;7386899;19;20394;-47
2022/08/17 10:12:53;;;;;;;12.20;7.37;;;26.20;73.10;;;;;;7384638;19;20372;-47
2022/08/17 10:15:38;;;;;;;9.87;6.13;;;26.50;69.70;;;;;;7381076;19;20568;-47
2022/08/17 10:18:24;;;;;;;9.57;6.40;;;26.90;62.80;;;;;;7385422;19;20372;-47
2022/08/17 10:26:11;;;;;;;12.30;6.23;;;27.10;62.60;;;;;;7383720;19;20376;-47
2022/08/17 10:26:46;;;;;;;6.30;5.70;;;27.30;64.80;;;;;;7380203;19;20372;-47
2022/08/17 10:29:23;;;;;;;9.13;5.90;;;27.30;64.90;;;;;;7382500;19;20380;-47
2022/08/17 10:32:02;;;;;;;7.83;6.93;;;27.10;65.50;;;;;;7384770;19;20380;-47
2022/08/17 10:34:52;;;;;;;6.10;5.60;;;27.10;63.90;;;;;;7383003;19;21560;-47
2022/08/17 10:37:46;;;;;;;5.57;5.07;;;27.10;62.20;;;;;;7383054;19;20984;-47
2022/08/17 10:40:26;;;;;;;7.93;5.33;;;27.10;63.70;;;;;;7382467;19;20460;-47
2022/08/17 10:43:02;;;;;;;4.83;4.43;;;27.20;61.90;;;;;;7379822;19;20383;-47
2022/08/17 10:45:38;;;;;;;5.77;5.17;;;27.30;59.50;;;;;;7380588;19;20409;-47
2022/08/17 10:48:28;;;;;;;5.30;4.90;;;27.30;57.90;;;;;;7385406;19;20401;-47
2022/08/17 10:51:06;;;;;;;6.47;5.30;;;27.50;57.00;;;;;;7382194;19;20409;-48
2022/08/17 10:53:51;;;;;;;4.73;4.33;;;27.30;56.70;;;;;;7383595;19;20952;-47
2022/08/17 10:56:49;;;;;;;7.73;5.30;;;27.30;55.30;;;;;;7384018;19;20376;-48
2022/08/17 10:59:49;;;;;;;5.27;4.43;;;27.20;55.50;;;;;;7382960;19;20372;-47
2022/08/17 11:02:31;;;;;;;5.13;4.63;;;27.30;55.70;;;;;;7378917;19;20422;-47
2022/08/17 11:05:49;;;;;;;4.83;4.43;;;27.40;55.20;;;;;;7380064;19;20387;-47
2022/08/17 11:08:51;;;;;;;5.03;4.53;;;27.30;53.90;;;;;;7382894;19;20391;-46
2022/08/17 11:11:46;;;;;;;4.97;4.50;;;27.10;55.70;;;;;;7383490;19;20478;-46
2022/08/17 11:14:31;;;;;;;6.27;5.47;;;27.00;56.30;;;;;;7381978;19;20713;-47
2022/08/17 11:17:16;;;;;;;4.57;4.17;;;26.90;54.30;;;;;;7382813;19;20953;-47
2022/08/17 11:20:18;;;;;;;8.50;5.57;;;26.70;55.20;;;;;;7382433;19;20372;-47
2022/08/17 11:23:26;;;;;;;7.27;5.37;;;26.60;55.40;;;;;;7381934;19;20446;-47
2022/08/17 11:25:57;;;;;;;5.77;5.13;;;26.70;56.10;;;;;;7378327;19;20423;-46
2022/08/17 11:28:34;;;;;;;3.87;3.57;;;26.60;56.20;;;;;;7381995;19;21059;-46
2022/08/17 11:31:08;;;;;;;4.80;4.40;;;26.60;56.20;;;;;;7384173;19;20611;-47
2022/08/17 11:33:58;;;;;;;5.20;4.27;;;26.70;56.00;;;;;;7383847;19;20422;-48
2022/08/17 11:36:57;;;;;;;5.20;4.13;;;26.60;56.00;;;;;;7381250;19;20453;-47
2022/08/17 11:39:52;;;;;;;10.60;4.73;;;26.70;55.90;;;;;;7382778;19;20384;-47
2022/08/17 11:42:36;;;;;;;5.73;5.00;;;26.60;56.00;;;;;;7380111;19;20682;-47
2022/08/17 11:45:38;;;;;;;6.00;4.80;;;26.50;56.80;;;;;;7384443;19;20408;-47
2022/08/17 11:54:13;;;;;;;4.60;4.00;;;26.30;57.50;;;;;;7381512;19;20372;-48
2022/08/17 11:56:51;;;;;;;4.70;4.20;;;26.30;57.30;;;;;;7383758;19;20902;-47
2022/08/17 11:59:51;;;;;;;6.00;4.90;;;26.50;57.10;;;;;;7383657;19;21302;-47
2022/08/17 12:02:42;;;;;;;6.93;4.80;;;26.70;56.10;;;;;;7381121;19;20388;-46
2022/08/17 12:05:28;;;;;;;4.77;4.27;;;27.00;55.80;;;;;;7374019;19;20435;-47
2022/08/17 12:08:14;;;;;;;5.20;4.57;;;27.10;56.00;;;;;;7378294;19;20383;-45
2022/08/17 12:11:03;;;;;;;8.83;5.30;;;27.10;55.70;;;;;;7383356;19;20788;-45
2022/08/17 12:13:40;;;;;;;5.10;4.60;;;27.20;55.20;;;;;;7379889;19;20369;-47
2022/08/17 12:16:09;;;;;;;5.17;4.50;;;27.30;56.10;;;;;;7379643;19;20379;-47
2022/08/17 12:18:40;;;;;;;4.80;4.10;;;27.30;55.20;;;;;;7376674;19;20412;-45
2022/08/17 12:21:39;;;;;;;4.40;4.00;;;27.40;55.10;;;;;;7381189;19;20384;-46
2022/08/17 12:24:19;;;;;;;6.20;4.10;;;27.70;52.60;;;;;;7378733;19;20791;-46
2022/08/17 12:26:57;;;;;;;6.07;5.20;;;27.80;52.00;;;;;;7379049;19;20384;-45
2022/08/17 12:29:30;;;;;;;6.10;5.47;;;27.80;53.30;;;;;;7382235;19;20380;-45
2022/08/17 12:32:02;;;;;;;5.20;4.70;;;27.90;54.00;;;;;;7381831;19;20910;-48
2022/08/17 12:34:38;;;;;;;5.30;4.80;;;27.90;53.70;;;;;;7376189;19;20372;-47
2022/08/17 12:37:14;;;;;;;4.53;4.13;;;28.20;51.50;;;;;;7379826;19;20384;-46
2022/08/17 12:39:53;;;;;;;4.70;4.23;;;28.30;50.00;;;;;;7380760;19;20897;-47
2022/08/17 12:42:28;;;;;;;4.53;4.13;;;28.50;49.30;;;;;;7384602;19;20492;-47
2022/08/17 12:45:01;;;;;;;6.20;4.73;;;28.50;48.50;;;;;;7388720;19;20371;-45
2022/08/17 12:47:31;;;;;;;4.13;3.73;;;28.50;47.70;;;;;;7388816;19;20428;-48
2022/08/17 12:50:08;;;;;;;4.87;3.50;;;28.60;47.90;;;;;;7388217;19;20987;-47
2022/08/17 12:52:41;;;;;;;4.47;3.90;;;28.70;47.70;;;;;;7383128;19;21074;-47
2022/08/17 12:55:20;;;;;;;6.07;4.53;;;28.70;48.20;;;;;;7389270;19;20756;-47
2022/08/17 12:57:53;;;;;;;6.10;4.00;;;29.00;46.40;;;;;;7385700;19;20392;-47
2022/08/17 13:00:31;;;;;;;4.63;4.23;;;29.10;46.70;;;;;;7384044;19;20428;-48
2022/08/17 13:03:06;;;;;;;4.80;4.33;;;29.50;46.70;;;;;;7385383;19;20395;-49
2022/08/17 13:05:40;;;;;;;4.03;3.60;;;30.10;45.80;;;;;;7387153;19;20384;-46
2022/08/17 13:08:16;;;;;;;5.00;3.90;;;30.90;44.10;;;;;;7389380;19;20752;-46
2022/08/17 13:10:55;;;;;;;6.23;4.70;;;32.20;41.50;;;;;;7386296;19;20921;-48
2022/08/17 13:13:29;;;;;;;4.47;4.07;;;33.50;40.10;;;;;;7384445;19;20372;-49
2022/08/17 13:16:03;;;;;;;4.57;4.17;;;34.80;37.70;;;;;;7386553;19;20414;-49
2022/08/17 13:18:44;;;;;;;5.37;4.10;;;35.60;35.90;;;;;;7359699;19;20431;-49
2022/08/17 13:21:29;;;;;;;4.33;3.93;;;36.20;34.40;;;;;;7385197;19;20372;-49
2022/08/17 13:24:03;;;;;;;4.17;3.80;;;36.40;33.30;;;;;;7386099;19;20415;-47
2022/08/17 13:26:35;;;;;;;4.00;3.50;;;36.10;34.00;;;;;;7389907;19;20384;-48
2022/08/17 13:29:08;;;;;;;7.30;3.80;;;35.60;35.50;;;;;;7383019;19;20910;-47
2022/08/17 13:31:42;;;;;;;5.97;3.90;;;35.50;34.40;;;;;;7388819;19;20369;-47
2022/08/17 13:34:19;;;;;;;4.63;3.50;;;34.80;35.30;;;;;;7388809;19;20384;-47
2022/08/17 13:36:49;;;;;;;4.80;3.60;;;34.30;35.80;;;;;;7379412;19;20917;-48
2022/08/17 13:39:21;;;;;;;3.80;3.40;;;33.80;36.40;;;;;;7383450;19;20783;-48
2022/08/17 13:41:54;;;;;;;4.30;3.90;;;33.40;37.00;;;;;;7385456;19;20910;-49
2022/08/17 13:44:35;;;;;;;4.83;4.33;;;33.10;37.20;;;;;;7386116;19;20911;-48
2022/08/17 13:47:18;;;;;;;5.17;4.10;;;32.80;38.10;;;;;;7388273;19;20372;-46
2022/08/17 13:49:48;;;;;;;9.67;4.50;;;32.50;38.50;;;;;;7384808;19;20372;-48
2022/08/17 13:52:35;;;;;;;5.00;4.20;;;32.20;37.50;;;;;;7384970;19;20391;-48
2022/08/17 13:55:10;;;;;;;4.53;4.03;;;32.10;38.00;;;;;;7384025;19;20926;-47
2022/08/17 13:57:40;;;;;;;7.80;4.87;;;32.00;38.70;;;;;;7383918;19;20360;-48